Airfield :
LOGIN :

Register | Disclaimer

   EN    FR    IT 

 










Legend :    VFR   Marginal VFR   IFR   Intensive IFR   Very Intensive IFR
Visi :
Ceiling :
>= 8 km
>= 3000ft
5 to 8 km
1000 to 3000 ft
1500m to 5 km
500 to 1000 ft
800 to 1500m
200 to 500 ft
< 800m
< 200 ft
Symbols :   Thunderstorms  Fog  Heavy snow  Heavy precipitations  Wind > 20 kt
SIGMETs :     Misc.  Thunderstorms  Icing  Turbulence  Mountain Waves  Volcanic Ashes






- Airport Elevation : 124 ft
- IATA code : AVN


LFMV - Avignon Caumont

CURRENT METAR :
  • 051030Z AUTO 33010KT CAVOK 28/09 Q1013 NOSIG

EXPIRED METARs :
  • 051000Z AUTO 34010KT CAVOK 28/09 Q1013 NOSIG
  • 050930Z AUTO 34010KT CAVOK 27/10 Q1013 NOSIG
  • 050900Z AUTO 35012KT CAVOK 26/09 Q1013 NOSIG
  • 050830Z AUTO 35013KT 320V020 CAVOK 25/09 Q1013 NOSIG
  • 050800Z AUTO 34015KT CAVOK 24/09 Q1013 NOSIG

TAF TAF LFMV
Valid from the 05 at 09:00 until the 06 at 09:00 UTC


050800Z 0509/0609 34015KT CAVOK
ATIS : +33 4 90 84 32 84



MET'MAP, your aeronautical weather chart ! - Copyright ORBIFLY December 2007 - Disclaimer

ORBIFLY MET'MAP TEAM :

Programming & Development : Alexandra Zaïnal
Concept & original design : Baudouin d'Aumeries
Assistance for programming : Marc-Olivier Méhu
Technical & hardware support : Manuel Goepfert

Contact : metmap@orbifly.com




SOURCES & CREDITS :

   NOAA